Time;durP1;ratioP1;P1;durP2;ratioP2;P2;SDS_P1;SDS_P2;PMS_P1;PMS_P2;Temp;Humidity;BMP_temperature;BMP_pressure;BME280_temperature;BME280_humidity;BME280_pressure;Samples;Min_cycle;Max_cycle;Signal;HPM_P1;HPM_P2
2023/09/24 00:17:10;;;;;;;7.13;6.43;;;13.20;99.90;;;;;;4443609;30;20238;-83
2023/09/24 00:37:16;;;;;;;9.07;8.17;;;13.30;99.90;;;;;;4610843;30;20227;-85
2023/09/24 01:07:48;;;;;;;7.33;6.70;;;13.40;99.90;;;;;;4560151;30;20207;-83
2023/09/24 01:38:13;;;;;;;6.03;5.43;;;13.70;99.90;;;;;;4617432;30;20386;-83
2023/09/24 02:03:33;;;;;;;4.97;4.57;;;14.10;99.90;;;;;;4671185;29;21162;-82
2023/09/24 02:33:57;;;;;;;3.90;3.57;;;14.00;99.90;;;;;;4649862;29;20562;-83
2023/09/24 02:58:52;;;;;;;5.63;4.40;;;14.20;99.90;;;;;;4628796;29;20279;-86
2023/09/24 03:19:29;;;;;;;6.33;5.20;;;14.10;99.90;;;;;;4739173;29;20207;-84
2023/09/24 03:39:49;;;;;;;5.30;4.87;;;13.90;99.90;;;;;;4582438;30;20215;-85
2023/09/24 04:10:21;;;;;;;6.70;5.20;;;13.50;99.90;;;;;;4676353;29;20277;-84
2023/09/24 04:40:19;;;;;;;6.33;5.60;;;13.80;99.90;;;;;;4556291;30;20551;-85
2023/09/24 04:56:07;;;;;;;6.63;5.40;;;13.50;99.90;;;;;;4611394;30;20227;-84
2023/09/24 05:21:17;;;;;;;7.10;6.40;;;13.40;99.90;;;;;;4634980;29;20198;-84
2023/09/24 05:51:55;;;;;;;6.63;5.83;;;13.80;99.90;;;;;;4702051;29;20218;-84
2023/09/24 05:56:15;;;;;;;6.43;5.83;;;13.90;99.90;;;;;;4710719;29;20569;-84
2023/09/24 06:16:53;;;;;;;6.80;6.00;;;14.40;99.90;;;;;;4648983;29;20704;-86
2023/09/24 06:47:34;;;;;;;6.77;6.03;;;15.20;99.90;;;;;;4770395;29;20278;-85
2023/09/24 07:12:59;;;;;;;6.83;5.40;;;15.90;99.90;;;;;;4730891;29;20216;-84
2023/09/24 07:37:52;;;;;;;9.77;8.03;;;15.90;99.90;;;;;;4636487;29;21186;-84
2023/09/24 07:58:26;;;;;;;7.90;6.87;;;16.30;99.90;;;;;;4701284;29;20247;-85
2023/09/24 08:28:43;;;;;;;9.23;7.90;;;16.60;99.90;;;;;;4646715;29;20620;-85
2023/09/24 08:49:15;;;;;;;4.77;4.30;;;17.50;98.00;;;;;;4512800;30;20526;-86
2023/09/24 09:14:32;;;;;;;3.33;2.80;;;18.60;91.00;;;;;;4670731;29;20493;-84
2023/09/24 09:55:17;;;;;;;2.90;2.10;;;18.00;92.40;;;;;;4996032;28;20201;-84
2023/09/24 10:25:37;;;;;;;3.93;2.40;;;18.70;88.70;;;;;;4729842;29;21155;-84
2023/09/24 11:00:41;;;;;;;4.07;2.30;;;18.50;89.20;;;;;;4581548;30;20283;-85
2023/09/24 11:41:17;;;;;;;1.40;1.30;;;18.80;85.90;;;;;;4856263;29;20222;-90
2023/09/24 12:06:57;;;;;;;1.50;1.13;;;19.70;81.10;;;;;;4811354;29;20241;-88
2023/09/24 12:27:16;;;;;;;2.55;1.40;;;19.70;79.30;;;;;;4807476;29;21173;-85
2023/09/24 12:52:53;;;;;;;3.20;1.20;;;20.00;79.10;;;;;;4784556;29;20217;-86
2023/09/24 13:42:57;;;;;;;1.23;0.80;;;20.40;71.60;;;;;;4626148;30;20390;-85
2023/09/24 13:58:50;;;;;;;1.20;1.00;;;20.80;71.80;;;;;;4640106;30;20286;-87
2023/09/24 14:29:19;;;;;;;2.88;1.20;;;19.40;79.30;;;;;;4771908;29;20301;-83
2023/09/24 14:33:39;;;;;;;1.20;1.20;;;19.40;76.50;;;;;;4670247;30;20642;-86
2023/09/24 14:49:35;;;;;;;2.47;1.17;;;18.80;79.60;;;;;;4622256;30;20213;-85
2023/09/24 15:14:38;;;;;;;2.30;1.30;;;19.10;77.30;;;;;;4627994;30;20234;-86
2023/09/24 15:45:16;;;;;;;1.40;1.10;;;19.20;77.90;;;;;;4782216;29;20266;-84
2023/09/24 16:05:27;;;;;;;1.63;1.20;;;18.80;79.80;;;;;;4710026;30;20346;-85
2023/09/24 16:25:42;;;;;;;2.57;1.50;;;17.80;83.80;;;;;;4682225;30;20228;-86
2023/09/24 16:41:11;;;;;;;2.03;1.70;;;17.20;87.40;;;;;;4791904;29;20208;-87
2023/09/24 17:06:31;;;;;;;2.30;1.73;;;16.10;99.90;;;;;;4840108;29;20252;-87
2023/09/24 23:10:41;;;;;;;6.03;4.57;;;14.00;99.90;;;;;;4667925;29;20644;-87
2023/09/24 23:26:18;;;;;;;6.23;4.67;;;13.70;99.90;;;;;;4720810;29;20236;-85
2023/09/24 23:46:35;;;;;;;6.13;4.80;;;13.30;99.90;;;;;;4574415;30;20210;-87
